createdAt,value
2023-02-11T00:01:45.212Z,5.17
2023-02-11T00:04:11.575Z,5.18
2023-02-11T00:06:37.986Z,5.21
2023-02-11T00:09:04.622Z,5.27
2023-02-11T00:11:31.137Z,5.32
2023-02-11T00:14:02.494Z,5.28
2023-02-11T00:16:29.517Z,5.33
2023-02-11T00:18:56.148Z,5.38
2023-02-11T00:21:24.954Z,5.36
2023-02-11T00:23:51.737Z,5.36
2023-02-11T00:26:20.257Z,5.38
2023-02-11T00:28:47.244Z,5.45
2023-02-11T00:31:14.396Z,5.43
2023-02-11T00:33:40.936Z,5.46
2023-02-11T00:36:09.128Z,5.47
2023-02-11T00:38:35.619Z,5.48
2023-02-11T00:41:01.991Z,5.49
2023-02-11T00:43:28.404Z,5.51
2023-02-11T00:45:54.793Z,5.58
2023-02-11T00:48:21.154Z,5.59
2023-02-11T00:50:47.716Z,5.59
2023-02-11T00:53:14.054Z,5.60
2023-02-11T00:55:40.679Z,5.65
2023-02-11T00:58:07.035Z,5.67
2023-02-11T01:00:33.584Z,5.68
2023-02-11T01:02:59.982Z,5.68
2023-02-11T01:05:26.683Z,5.68
2023-02-11T01:07:53.044Z,5.69
2023-02-11T01:10:19.729Z,5.70
2023-02-11T01:12:46.156Z,5.72
2023-02-11T01:15:14.342Z,5.74
2023-02-11T01:17:40.710Z,5.78
2023-02-11T01:20:08.015Z,5.76
2023-02-11T01:22:37.510Z,5.77
2023-02-11T01:25:04.071Z,5.78
2023-02-11T01:27:30.672Z,5.76
2023-02-11T01:29:57.020Z,5.74
2023-02-11T01:32:23.579Z,5.72
2023-02-11T01:34:50.058Z,5.74
2023-02-11T01:37:16.448Z,5.74
2023-02-11T01:39:42.802Z,5.72
2023-02-11T01:42:14.066Z,5.73
2023-02-11T01:44:40.416Z,5.72
2023-02-11T01:47:06.878Z,5.71
2023-02-11T01:49:38.641Z,5.70
2023-02-11T01:52:04.987Z,5.69
2023-02-11T01:54:52.283Z,5.69
2023-02-11T01:57:23.351Z,5.67
2023-02-11T01:59:58.740Z,5.69
2023-02-11T02:02:34.182Z,5.70
2023-02-11T02:05:08.575Z,5.68
2023-02-11T02:07:39.837Z,5.66
2023-02-11T02:10:10.025Z,5.66
2023-02-11T02:12:36.374Z,5.66
2023-02-11T02:15:20.235Z,5.66
2023-02-11T02:18:01.597Z,5.62
2023-02-11T02:20:49.828Z,5.64
2023-02-11T02:23:48.540Z,5.62
2023-02-11T02:26:17.730Z,5.65
2023-02-11T02:28:47.132Z,5.62
2023-02-11T02:31:47.121Z,5.62
2023-02-11T02:34:37.668Z,5.63
2023-02-11T02:37:27.260Z,5.64
2023-02-11T02:39:53.875Z,5.65
2023-02-11T02:42:20.377Z,5.64
2023-02-11T02:44:50.238Z,5.65
2023-02-11T02:47:16.866Z,5.65
2023-02-11T02:49:43.229Z,5.65
2023-02-11T02:52:15.823Z,5.65
2023-02-11T02:54:48.228Z,5.66
2023-02-11T02:57:23.711Z,5.67
2023-02-11T03:00:17.225Z,5.66
2023-02-11T03:03:01.977Z,5.66
2023-02-11T03:05:49.313Z,5.67
2023-02-11T03:08:41.288Z,5.69
2023-02-11T03:11:07.911Z,5.67
2023-02-11T03:13:35.147Z,5.69
2023-02-11T03:16:15.930Z,5.67
2023-02-11T03:18:44.713Z,5.68
2023-02-11T03:21:11.201Z,5.68
2023-02-11T03:23:40.853Z,5.67
2023-02-11T03:26:19.628Z,5.69
2023-02-11T03:29:06.344Z,5.67
2023-02-11T03:31:37.361Z,5.66
2023-02-11T03:34:09.992Z,5.67
2023-02-11T03:36:46.007Z,5.67
2023-02-11T03:39:14.588Z,5.67
2023-02-11T03:41:41.055Z,5.67
2023-02-11T03:44:07.526Z,5.65
2023-02-11T03:46:36.549Z,5.68
2023-02-11T03:49:04.508Z,5.68
2023-02-11T03:51:31.540Z,5.71
2023-02-11T03:53:58.624Z,5.70
2023-02-11T03:56:26.909Z,5.70
2023-02-11T03:58:53.264Z,5.71
2023-02-11T04:01:19.709Z,5.70
2023-02-11T04:03:46.103Z,5.69
2023-02-11T04:06:12.465Z,5.69
2023-02-11T04:08:39.062Z,5.69
2023-02-11T04:11:05.429Z,5.69
2023-02-11T04:13:31.803Z,5.68
2023-02-11T04:15:58.462Z,5.66
2023-02-11T04:18:24.892Z,5.65
2023-02-11T04:20:51.377Z,5.66
2023-02-11T04:23:18.059Z,5.66
2023-02-11T04:25:44.437Z,5.66
2023-02-11T04:28:10.835Z,5.65
2023-02-11T04:30:37.479Z,5.64
2023-02-11T04:33:03.824Z,5.65
2023-02-11T04:35:30.192Z,5.64
2023-02-11T04:37:56.709Z,5.64
2023-02-11T04:40:23.085Z,5.61
2023-02-11T04:42:49.420Z,5.62
2023-02-11T04:45:15.992Z,5.60
2023-02-11T04:47:42.349Z,5.60
2023-02-11T04:50:08.908Z,5.58
2023-02-11T04:52:35.273Z,5.59
2023-02-11T04:55:01.626Z,5.56
2023-02-11T04:57:28.206Z,5.57
2023-02-11T04:59:54.557Z,5.56
2023-02-11T05:02:21.075Z,5.53
2023-02-11T05:04:47.580Z,5.49
2023-02-11T05:07:14.165Z,5.49
2023-02-11T05:09:40.505Z,5.48
2023-02-11T05:12:07.052Z,5.48
2023-02-11T05:14:33.533Z,5.47
2023-02-11T05:16:59.974Z,5.47
2023-02-11T05:19:26.496Z,5.48
2023-02-11T05:22:02.145Z,5.47
2023-02-11T05:24:30.051Z,5.49
2023-02-11T05:26:56.403Z,5.48
2023-02-11T05:29:22.778Z,5.49
2023-02-11T05:31:49.127Z,5.48
2023-02-11T05:34:15.491Z,5.49
2023-02-11T05:36:41.864Z,5.50
2023-02-11T05:39:08.287Z,5.49
2023-02-11T05:41:34.720Z,5.49
2023-02-11T05:44:01.279Z,5.51
2023-02-11T05:46:27.744Z,5.53
2023-02-11T05:48:54.182Z,5.53
2023-02-11T05:51:20.741Z,5.53
2023-02-11T05:53:47.138Z,5.55
2023-02-11T05:56:14.603Z,5.57
2023-02-11T05:58:41.061Z,5.57
2023-02-11T06:01:07.625Z,5.56
2023-02-11T06:03:34.066Z,5.56
2023-02-11T06:06:00.526Z,5.58
2023-02-11T06:08:26.918Z,5.59
2023-02-11T06:10:53.472Z,5.60
2023-02-11T06:13:19.830Z,5.59
2023-02-11T06:15:55.207Z,5.58
2023-02-11T06:18:21.568Z,5.61
2023-02-11T06:20:47.923Z,5.62
2023-02-11T06:23:14.368Z,5.62
2023-02-11T06:25:40.721Z,5.64
2023-02-11T06:28:07.395Z,5.66
2023-02-11T06:30:33.826Z,5.67
2023-02-11T06:33:00.382Z,5.67
2023-02-11T06:35:26.801Z,5.65
2023-02-11T06:37:54.142Z,5.68
2023-02-11T06:40:20.762Z,5.69
2023-02-11T06:42:47.136Z,5.71
2023-02-11T06:45:13.589Z,5.72
2023-02-11T06:47:40.283Z,5.73
2023-02-11T06:50:07.901Z,5.74
2023-02-11T06:52:34.660Z,5.75
2023-02-11T06:55:01.033Z,5.78
2023-02-11T06:57:27.386Z,5.81
2023-02-11T06:59:53.969Z,5.81
2023-02-11T07:02:21.105Z,5.84
2023-02-11T07:04:47.948Z,5.84
2023-02-11T07:07:14.397Z,5.84
2023-02-11T07:09:40.766Z,5.87
2023-02-11T07:12:07.289Z,5.89
2023-02-11T07:14:33.703Z,5.91
2023-02-11T07:17:00.124Z,5.93
2023-02-11T07:19:26.713Z,5.94
2023-02-11T07:21:53.334Z,5.95
2023-02-11T07:24:20.064Z,5.97
2023-02-11T07:26:46.422Z,5.97
2023-02-11T07:29:12.855Z,6.01
2023-02-11T07:31:39.355Z,6.02
2023-02-11T07:34:05.857Z,6.02
2023-02-11T07:36:32.528Z,6.02
2023-02-11T07:38:59.967Z,6.04
2023-02-11T07:41:27.741Z,6.06
2023-02-11T07:43:54.253Z,6.08
2023-02-11T07:46:25.844Z,6.09
2023-02-11T07:48:52.408Z,6.10
2023-02-11T07:51:24.028Z,6.14
2023-02-11T07:53:50.447Z,6.13
2023-02-11T07:56:17.782Z,6.14
2023-02-11T07:58:44.347Z,6.16
2023-02-11T08:01:12.701Z,6.16
2023-02-11T08:03:39.471Z,6.19
2023-02-11T08:06:07.060Z,6.19
2023-02-11T08:08:33.536Z,6.19
2023-02-11T08:11:08.190Z,6.20
2023-02-11T08:13:34.920Z,6.22
2023-02-11T08:16:01.398Z,6.23
2023-02-11T08:18:27.988Z,6.25
2023-02-11T08:20:54.351Z,6.24
2023-02-11T08:23:20.704Z,6.25
2023-02-11T08:25:47.282Z,6.25
2023-02-11T08:28:13.724Z,6.26
2023-02-11T08:30:40.150Z,6.28
2023-02-11T08:33:06.755Z,6.29
2023-02-11T08:35:35.255Z,6.30
2023-02-11T08:38:01.604Z,6.30
2023-02-11T08:40:28.081Z,6.31
2023-02-11T08:42:54.475Z,6.34
2023-02-11T08:45:20.825Z,6.35
2023-02-11T08:47:47.208Z,6.36
2023-02-11T08:50:13.623Z,6.38
2023-02-11T08:52:39.965Z,6.40
2023-02-11T08:55:06.787Z,6.39
2023-02-11T08:57:33.149Z,6.40
2023-02-11T08:59:59.497Z,6.42
2023-02-11T09:02:25.925Z,6.43
2023-02-11T09:04:52.343Z,6.43
2023-02-11T09:07:18.690Z,6.44
2023-02-11T09:09:45.092Z,6.45
2023-02-11T09:12:11.476Z,6.47
2023-02-11T09:14:38.561Z,6.48
2023-02-11T09:17:05.253Z,6.48
2023-02-11T09:19:31.633Z,6.50
2023-02-11T09:21:58.697Z,6.49
2023-02-11T09:24:25.171Z,6.49
2023-02-11T09:26:51.533Z,6.49
2023-02-11T09:29:17.936Z,6.49
2023-02-11T09:31:44.462Z,6.49
2023-02-11T09:34:11.171Z,6.51
2023-02-11T09:36:38.707Z,6.50
2023-02-11T09:39:07.071Z,6.50
2023-02-11T09:41:47.649Z,6.53
2023-02-11T09:44:24.850Z,6.54
2023-02-11T09:47:02.935Z,6.55
2023-02-11T09:49:44.999Z,6.55
2023-02-11T09:52:11.324Z,6.57
2023-02-11T09:54:44.340Z,6.59
2023-02-11T09:57:26.604Z,6.59
2023-02-11T09:59:54.482Z,6.58
2023-02-11T10:02:24.310Z,6.58
2023-02-11T10:05:29.237Z,6.56
2023-02-11T10:08:10.136Z,6.56
2023-02-11T10:10:40.636Z,6.55
2023-02-11T10:13:21.327Z,6.55
2023-02-11T10:15:59.567Z,6.52
2023-02-11T10:18:35.793Z,6.51
2023-02-11T10:21:20.882Z,6.52
2023-02-11T10:23:51.580Z,6.52
2023-02-11T10:26:18.604Z,6.55
2023-02-11T10:28:49.700Z,6.53
2023-02-11T10:31:18.569Z,6.53
2023-02-11T10:33:47.726Z,6.53
2023-02-11T10:36:14.600Z,6.54
2023-02-11T10:38:40.973Z,6.55
2023-02-11T10:41:10.378Z,6.54
2023-02-11T10:43:36.712Z,6.58
2023-02-11T10:46:03.568Z,6.62
2023-02-11T10:48:39.407Z,6.67
2023-02-11T10:51:41.414Z,6.71
2023-02-11T10:54:08.228Z,6.74
2023-02-11T10:56:35.897Z,6.72
2023-02-11T10:59:07.791Z,6.73
2023-02-11T11:01:44.066Z,6.74
2023-02-11T11:04:29.457Z,6.77
2023-02-11T11:06:59.535Z,6.76
2023-02-11T11:09:32.933Z,6.78
2023-02-11T11:11:59.279Z,6.76
2023-02-11T11:14:28.830Z,6.79
2023-02-11T11:16:55.452Z,6.81
2023-02-11T11:19:25.213Z,6.80
2023-02-11T11:21:55.648Z,6.84
2023-02-11T11:24:25.474Z,6.84
2023-02-11T11:26:54.784Z,6.89
2023-02-11T11:29:45.264Z,6.89
2023-02-11T11:32:14.980Z,6.90
2023-02-11T11:34:48.815Z,6.92
2023-02-11T11:37:28.150Z,6.93
2023-02-11T11:40:23.799Z,6.98
2023-02-11T11:43:20.233Z,6.99
2023-02-11T11:45:58.693Z,7.01
2023-02-11T11:48:35.187Z,7.03
2023-02-11T11:51:04.131Z,7.05
2023-02-11T11:53:48.398Z,7.10
2023-02-11T11:56:16.935Z,7.12
2023-02-11T11:58:43.289Z,7.16
2023-02-11T12:01:44.964Z,7.19
2023-02-11T12:04:48.933Z,7.20
2023-02-11T12:07:44.152Z,7.23
2023-02-11T12:10:40.065Z,7.25
2023-02-11T12:13:44.340Z,7.28
2023-02-11T12:16:19.790Z,7.30
2023-02-11T12:18:52.237Z,7.34
2023-02-11T12:21:43.059Z,7.35
2023-02-11T12:24:41.376Z,7.38
2023-02-11T12:27:14.045Z,7.40
2023-02-11T12:29:53.889Z,7.42
2023-02-11T12:32:39.128Z,7.42
2023-02-11T12:35:35.050Z,7.46
2023-02-11T12:38:22.702Z,7.47
2023-02-11T12:40:52.424Z,7.51
2023-02-11T12:43:23.440Z,7.57
2023-02-11T12:46:10.279Z,7.57
2023-02-11T12:48:54.970Z,7.59
2023-02-11T12:51:41.771Z,7.59
2023-02-11T12:54:08.208Z,7.61
2023-02-11T12:56:42.553Z,7.63
2023-02-11T12:59:14.491Z,7.65
2023-02-11T13:01:41.237Z,7.68
2023-02-11T13:04:30.532Z,7.68
2023-02-11T13:07:02.948Z,7.70
2023-02-11T13:09:35.242Z,7.69
2023-02-11T13:12:22.807Z,7.72
2023-02-11T13:14:50.253Z,7.74
2023-02-11T13:17:32.736Z,7.73
2023-02-11T13:20:01.574Z,7.73
2023-02-11T13:22:44.181Z,7.71
2023-02-11T13:25:22.961Z,7.71
2023-02-11T13:28:00.328Z,7.73
2023-02-11T13:30:34.299Z,7.72
2023-02-11T13:33:01.026Z,7.70
2023-02-11T13:35:29.646Z,7.72
2023-02-11T13:37:56.092Z,7.74
2023-02-11T13:40:24.086Z,7.74
2023-02-11T13:42:55.418Z,7.74
2023-02-11T13:45:35.838Z,7.76
2023-02-11T13:48:06.619Z,7.74
2023-02-11T13:50:38.264Z,7.73
2023-02-11T13:53:05.692Z,7.74
2023-02-11T13:55:32.167Z,7.74
2023-02-11T13:58:13.721Z,7.74
2023-02-11T14:00:40.347Z,7.73
2023-02-11T14:03:31.452Z,7.73
2023-02-11T14:06:28.866Z,7.74
2023-02-11T14:08:59.205Z,7.75
2023-02-11T14:11:40.645Z,7.75
2023-02-11T14:14:31.845Z,7.72
2023-02-11T14:16:58.323Z,7.72
2023-02-11T14:19:32.055Z,7.72
2023-02-11T14:22:23.885Z,7.71
2023-02-11T14:24:52.676Z,7.71
2023-02-11T14:27:25.198Z,7.72
2023-02-11T14:30:14.826Z,7.72
2023-02-11T14:33:04.024Z,7.70
2023-02-11T14:35:55.101Z,7.69
2023-02-11T14:39:00.124Z,7.68
2023-02-11T14:41:27.846Z,7.69
2023-02-11T14:43:58.957Z,7.68
2023-02-11T14:46:27.552Z,7.67
2023-02-11T14:48:55.200Z,7.68
2023-02-11T14:51:23.670Z,7.67
2023-02-11T14:53:50.960Z,7.68
2023-02-11T14:56:22.295Z,7.66
2023-02-11T14:58:49.228Z,7.65
2023-02-11T15:01:30.519Z,7.68
2023-02-11T15:03:58.256Z,7.69
2023-02-11T15:06:32.014Z,7.68
2023-02-11T15:09:02.889Z,7.68
2023-02-11T15:11:32.059Z,7.68
2023-02-11T15:13:59.766Z,7.70
2023-02-11T15:16:27.118Z,7.69
2023-02-11T15:18:55.342Z,7.71
2023-02-11T15:21:26.949Z,7.75
2023-02-11T15:24:01.407Z,7.75
2023-02-11T15:26:27.999Z,7.75
2023-02-11T15:28:56.068Z,7.73
2023-02-11T15:31:24.426Z,7.73
2023-02-11T15:33:51.590Z,7.74
2023-02-11T15:36:19.137Z,7.75
2023-02-11T15:38:45.519Z,7.73
2023-02-11T15:41:34.837Z,7.75
2023-02-11T15:44:01.174Z,7.76
2023-02-11T15:46:32.562Z,7.73
2023-02-11T15:48:58.941Z,7.73
2023-02-11T15:51:33.207Z,7.73
2023-02-11T15:54:00.917Z,7.72
2023-02-11T15:56:32.879Z,7.71
2023-02-11T15:59:00.664Z,7.71
2023-02-11T16:01:34.484Z,7.71
2023-02-11T16:04:01.191Z,7.69
2023-02-11T16:06:35.873Z,7.66
2023-02-11T16:09:03.661Z,7.66
2023-02-11T16:11:38.472Z,7.64
2023-02-11T16:14:42.125Z,7.64
2023-02-11T16:17:13.144Z,7.64
2023-02-11T16:19:43.811Z,7.64
2023-02-11T16:22:11.505Z,7.65
2023-02-11T16:24:38.124Z,7.65
2023-02-11T16:27:07.111Z,7.63
2023-02-11T16:29:36.151Z,7.63
2023-02-11T16:32:16.881Z,7.64
2023-02-11T16:34:43.324Z,7.63
2023-02-11T16:37:09.801Z,7.63
2023-02-11T16:39:36.470Z,7.64
2023-02-11T16:42:05.200Z,7.66
2023-02-11T16:44:33.546Z,7.67
2023-02-11T16:47:00.264Z,7.67
2023-02-11T16:49:28.578Z,7.69
2023-02-11T16:51:56.961Z,7.68
2023-02-11T16:54:23.337Z,7.68
2023-02-11T16:56:49.735Z,7.67
2023-02-11T16:59:16.370Z,7.69
2023-02-11T17:01:42.821Z,7.69
2023-02-11T17:04:29.616Z,7.68
2023-02-11T17:06:58.380Z,7.68
2023-02-11T17:09:29.761Z,7.66
2023-02-11T17:11:56.765Z,7.64
2023-02-11T17:14:23.327Z,7.63
2023-02-11T17:16:49.832Z,7.63
2023-02-11T17:19:17.458Z,7.65
2023-02-11T17:21:44.558Z,7.64
2023-02-11T17:24:10.985Z,7.65
2023-02-11T17:26:38.592Z,7.63
2023-02-11T17:29:06.025Z,7.63
2023-02-11T17:31:32.598Z,7.61
2023-02-11T17:33:59.039Z,7.62
2023-02-11T17:36:25.420Z,7.63
2023-02-11T17:38:52.127Z,7.60
2023-02-11T17:41:18.527Z,7.61
2023-02-11T17:43:44.927Z,7.62
2023-02-11T17:46:11.398Z,7.63
2023-02-11T17:48:38.541Z,7.65
2023-02-11T17:51:05.977Z,7.67
2023-02-11T17:53:32.310Z,7.67
2023-02-11T17:55:58.726Z,7.69
2023-02-11T17:58:25.094Z,7.67
2023-02-11T18:00:51.579Z,7.68
2023-02-11T18:03:18.038Z,7.67
2023-02-11T18:05:44.372Z,7.64
2023-02-11T18:08:10.746Z,7.66
2023-02-11T18:10:37.165Z,7.65
2023-02-11T18:13:03.726Z,7.65
2023-02-11T18:15:30.096Z,7.65
2023-02-11T18:17:56.712Z,7.63
2023-02-11T18:20:23.113Z,7.61
2023-02-11T18:22:49.617Z,7.62
2023-02-11T18:25:16.095Z,7.62
2023-02-11T18:27:42.819Z,7.62
2023-02-11T18:30:15.464Z,7.60
2023-02-11T18:32:41.874Z,7.60
2023-02-11T18:35:14.853Z,7.57
2023-02-11T18:37:42.550Z,7.58
2023-02-11T18:40:10.258Z,7.57
2023-02-11T18:42:36.685Z,7.56
2023-02-11T18:45:04.185Z,7.58
2023-02-11T18:47:31.433Z,7.56
2023-02-11T18:49:57.809Z,7.58
2023-02-11T18:52:24.214Z,7.56
2023-02-11T18:54:51.458Z,7.57
2023-02-11T18:57:17.860Z,7.56
2023-02-11T18:59:44.318Z,7.56
2023-02-11T19:02:11.008Z,7.54
2023-02-11T19:04:37.655Z,7.52
2023-02-11T19:07:04.281Z,7.53
2023-02-11T19:09:30.859Z,7.52
2023-02-11T19:11:58.130Z,7.53
2023-02-11T19:14:26.609Z,7.52
2023-02-11T19:16:55.209Z,7.52
2023-02-11T19:19:23.114Z,7.53
2023-02-11T19:21:49.509Z,7.52
2023-02-11T19:24:18.801Z,7.51
2023-02-11T19:26:45.917Z,7.48
2023-02-11T19:29:12.355Z,7.49
2023-02-11T19:31:38.911Z,7.50
2023-02-11T19:34:05.680Z,7.50
2023-02-11T19:36:32.115Z,7.49
2023-02-11T19:39:01.954Z,7.50
2023-02-11T19:41:29.237Z,7.49
2023-02-11T19:43:56.600Z,7.49
2023-02-11T19:46:27.353Z,7.48
2023-02-11T19:48:53.976Z,7.48
2023-02-11T19:51:20.335Z,7.49
2023-02-11T19:53:46.973Z,7.48
2023-02-11T19:56:14.188Z,7.49
2023-02-11T19:58:40.701Z,7.48
2023-02-11T20:01:11.229Z,7.49
2023-02-11T20:03:38.790Z,7.50
2023-02-11T20:06:07.252Z,7.51
2023-02-11T20:08:33.663Z,7.51
2023-02-11T20:11:07.231Z,7.51
2023-02-11T20:13:34.132Z,7.51
2023-02-11T20:16:14.291Z,7.49
2023-02-11T20:18:40.825Z,7.50
2023-02-11T20:21:18.375Z,7.50
2023-02-11T20:23:46.413Z,7.50
2023-02-11T20:26:14.608Z,7.51
2023-02-11T20:28:41.126Z,7.49
2023-02-11T20:31:07.677Z,7.48
2023-02-11T20:33:34.825Z,7.51
2023-02-11T20:36:09.568Z,7.51
2023-02-11T20:38:36.021Z,7.50
2023-02-11T20:41:04.341Z,7.49
2023-02-11T20:43:31.016Z,7.49
2023-02-11T20:46:01.847Z,7.50
2023-02-11T20:48:28.243Z,7.48
2023-02-11T20:50:55.172Z,7.49
2023-02-11T20:53:21.549Z,7.50
2023-02-11T20:55:47.905Z,7.49
2023-02-11T20:58:14.355Z,7.51
2023-02-11T21:00:40.713Z,7.50
2023-02-11T21:03:07.164Z,7.49
2023-02-11T21:05:34.639Z,7.51
2023-02-11T21:08:00.971Z,7.50
2023-02-11T21:10:27.512Z,7.52
2023-02-11T21:12:53.899Z,7.50
2023-02-11T21:15:21.017Z,7.51
2023-02-11T21:17:47.377Z,7.52
2023-02-11T21:20:13.797Z,7.48
2023-02-11T21:22:40.146Z,7.52
2023-02-11T21:25:06.672Z,7.52
2023-02-11T21:27:34.276Z,7.51
2023-02-11T21:30:01.260Z,7.49
2023-02-11T21:32:27.733Z,7.48
2023-02-11T21:34:54.138Z,7.49
2023-02-11T21:37:21.135Z,7.51
2023-02-11T21:39:47.515Z,7.51
2023-02-11T21:42:13.888Z,7.50
2023-02-11T21:44:40.268Z,7.50
2023-02-11T21:47:06.711Z,7.50
2023-02-11T21:49:33.367Z,7.50
2023-02-11T21:52:00.538Z,7.51
2023-02-11T21:54:31.875Z,7.51
2023-02-11T21:56:59.674Z,7.50
2023-02-11T21:59:26.033Z,7.52
2023-02-11T22:01:52.394Z,7.51
2023-02-11T22:04:18.845Z,7.51
2023-02-11T22:06:45.318Z,7.50
2023-02-11T22:09:11.720Z,7.50
2023-02-11T22:11:38.105Z,7.51
2023-02-11T22:14:04.585Z,7.50
2023-02-11T22:16:31.123Z,7.50
2023-02-11T22:18:58.565Z,7.51
2023-02-11T22:21:25.201Z,7.53
2023-02-11T22:23:51.729Z,7.51
2023-02-11T22:26:20.000Z,7.52
2023-02-11T22:28:46.895Z,7.49
2023-02-11T22:31:15.077Z,7.49
2023-02-11T22:33:41.590Z,7.47
2023-02-11T22:36:11.356Z,7.50
2023-02-11T22:38:37.738Z,7.51
2023-02-11T22:41:08.550Z,7.51
2023-02-11T22:43:35.253Z,7.49
2023-02-11T22:46:05.685Z,7.51
2023-02-11T22:48:32.822Z,7.52
2023-02-11T22:51:31.668Z,7.51
2023-02-11T22:54:02.740Z,7.51
2023-02-11T22:56:29.902Z,7.50
2023-02-11T22:59:00.126Z,7.52
2023-02-11T23:01:26.861Z,7.53
2023-02-11T23:03:53.270Z,7.53
2023-02-11T23:06:19.652Z,7.54
2023-02-11T23:08:46.335Z,7.54
2023-02-11T23:11:13.836Z,7.54
2023-02-11T23:13:40.888Z,7.56
2023-02-11T23:16:09.212Z,7.54
2023-02-11T23:18:36.356Z,7.54
2023-02-11T23:21:07.340Z,7.53
2023-02-11T23:23:34.318Z,7.54
2023-02-11T23:26:00.829Z,7.54
2023-02-11T23:28:27.445Z,7.56
2023-02-11T23:30:54.116Z,7.55
2023-02-11T23:33:20.742Z,7.54
2023-02-11T23:35:47.128Z,7.55
2023-02-11T23:38:13.636Z,7.53
2023-02-11T23:40:40.027Z,7.55
2023-02-11T23:43:06.376Z,7.54
2023-02-11T23:45:32.787Z,7.53
2023-02-11T23:47:59.164Z,7.52
2023-02-11T23:50:25.527Z,7.53
2023-02-11T23:52:51.907Z,7.52
2023-02-11T23:55:18.292Z,7.51
2023-02-11T23:57:44.748Z,7.49
